Time;durP1;ratioP1;P1;durP2;ratioP2;P2;SDS_P1;SDS_P2;PMS_P1;PMS_P2;Temp;Humidity;BMP_temperature;BMP_pressure;BME280_temperature;BME280_humidity;BME280_pressure;Samples;Min_cycle;Max_cycle;Signal;HPM_P1;HPM_P2
2023/12/29 00:00:35;;;;;;;14.55;2.65;;;11.70;99.90;;;;;;5046651;28;20021;-71
2023/12/29 00:03:01;;;;;;;9.30;2.45;;;11.70;99.90;;;;;;5046521;28;20017;-69
2023/12/29 00:05:27;;;;;;;10.10;2.10;;;11.70;99.90;;;;;;5046664;28;20639;-70
2023/12/29 00:07:53;;;;;;;15.57;2.65;;;11.70;99.90;;;;;;5046439;28;20029;-71
2023/12/29 00:10:18;;;;;;;13.68;2.70;;;11.70;99.90;;;;;;5033579;28;20028;-71
2023/12/29 00:12:44;;;;;;;12.73;2.30;;;11.70;99.90;;;;;;5026147;28;20028;-71
2023/12/29 00:15:10;;;;;;;10.77;2.72;;;11.70;99.90;;;;;;5028107;28;20107;-70
2023/12/29 00:17:37;;;;;;;13.55;2.05;;;11.80;99.90;;;;;;5046518;28;20049;-71
2023/12/29 00:20:04;;;;;;;8.85;1.90;;;11.80;99.90;;;;;;5045997;28;20025;-71
2023/12/29 00:22:30;;;;;;;13.30;2.28;;;11.80;99.90;;;;;;5046547;28;20055;-71
2023/12/29 00:24:55;;;;;;;13.38;2.15;;;11.80;99.90;;;;;;5028237;28;20052;-71
2023/12/29 00:27:22;;;;;;;14.50;2.33;;;11.80;99.90;;;;;;5046437;28;20029;-72
2023/12/29 00:29:47;;;;;;;15.25;2.97;;;11.70;99.90;;;;;;5046191;28;20021;-70
2023/12/29 00:32:13;;;;;;;13.55;2.83;;;11.70;99.90;;;;;;5045004;28;20025;-71
2023/12/29 00:34:39;;;;;;;11.35;1.98;;;11.60;99.90;;;;;;5045707;28;20060;-71
2023/12/29 00:37:06;;;;;;;10.30;2.60;;;11.50;99.90;;;;;;5046528;28;20048;-71
2023/12/29 00:39:38;;;;;;;8.82;2.00;;;11.40;99.90;;;;;;5046018;28;20631;-71
2023/12/29 00:42:04;;;;;;;10.77;2.47;;;11.40;99.90;;;;;;5045929;28;20612;-70
2023/12/29 00:44:30;;;;;;;10.45;2.63;;;11.40;99.90;;;;;;5046258;28;20116;-71
2023/12/29 00:46:56;;;;;;;12.02;2.30;;;11.40;99.90;;;;;;5045985;28;20025;-71
2023/12/29 00:49:22;;;;;;;11.30;2.20;;;11.40;99.90;;;;;;5046438;28;20017;-71
2023/12/29 00:51:48;;;;;;;10.52;2.10;;;11.40;99.90;;;;;;5046135;28;20071;-71
2023/12/29 00:54:13;;;;;;;9.43;1.98;;;11.40;99.90;;;;;;5045945;28;20060;-71
2023/12/29 00:56:39;;;;;;;9.27;2.03;;;11.50;99.90;;;;;;5046127;28;20018;-71
2023/12/29 00:59:05;;;;;;;11.68;2.10;;;11.50;99.90;;;;;;5049127;28;20028;-69
2023/12/29 01:01:34;;;;;;;8.23;1.85;;;11.60;99.90;;;;;;5049908;28;20017;-71
2023/12/29 01:04:00;;;;;;;15.35;2.58;;;11.60;99.90;;;;;;5050087;28;20025;-71
2023/12/29 01:06:26;;;;;;;14.93;2.55;;;11.60;99.90;;;;;;5049513;28;20509;-70
2023/12/29 01:08:51;;;;;;;10.52;2.53;;;11.60;99.90;;;;;;5048383;28;20043;-71
2023/12/29 01:11:17;;;;;;;10.63;1.90;;;11.60;99.90;;;;;;5049406;28;20029;-70
2023/12/29 01:13:43;;;;;;;11.90;3.08;;;11.60;99.90;;;;;;5032035;28;20033;-69
2023/12/29 01:16:08;;;;;;;9.93;2.22;;;11.60;99.90;;;;;;5049036;28;20616;-71
2023/12/29 01:18:34;;;;;;;8.63;2.72;;;11.60;99.90;;;;;;5049787;28;20028;-70
2023/12/29 01:21:00;;;;;;;15.10;2.53;;;11.50;99.90;;;;;;5049125;28;20107;-71
2023/12/29 01:23:25;;;;;;;11.45;2.10;;;11.50;99.90;;;;;;5049801;28;20025;-71
2023/12/29 01:25:51;;;;;;;9.93;2.60;;;11.40;99.90;;;;;;5049137;28;20029;-70
2023/12/29 01:28:17;;;;;;;13.90;2.47;;;11.40;99.90;;;;;;5049531;28;20107;-70
2023/12/29 01:30:42;;;;;;;10.52;2.13;;;11.30;99.90;;;;;;5047665;28;20017;-72
2023/12/29 01:33:08;;;;;;;11.70;2.55;;;11.20;99.90;;;;;;5049176;28;20525;-70
2023/12/29 01:35:33;;;;;;;6.03;1.60;;;11.20;99.90;;;;;;5049164;28;20031;-70
2023/12/29 01:38:00;;;;;;;9.88;2.13;;;11.20;99.90;;;;;;5049189;28;20096;-70
2023/12/29 01:40:26;;;;;;;12.75;2.13;;;11.20;99.90;;;;;;5048795;28;20083;-71
2023/12/29 01:42:52;;;;;;;11.50;2.00;;;11.20;99.90;;;;;;5049205;28;20064;-69
2023/12/29 01:45:22;;;;;;;11.25;2.97;;;11.20;99.90;;;;;;5048792;28;20037;-70
2023/12/29 01:47:50;;;;;;;14.30;2.45;;;11.20;99.90;;;;;;5049355;28;20032;-70
2023/12/29 01:50:18;;;;;;;11.27;1.92;;;11.20;99.90;;;;;;5048726;28;20029;-69
2023/12/29 01:52:45;;;;;;;10.82;2.28;;;11.20;99.90;;;;;;5048919;28;20021;-70
2023/12/29 01:55:15;;;;;;;11.63;2.38;;;11.20;99.90;;;;;;5048343;28;20502;-70
2023/12/29 01:57:41;;;;;;;11.40;2.00;;;11.20;99.90;;;;;;5049109;28;20029;-70
2023/12/29 02:00:07;;;;;;;11.15;2.20;;;11.20;99.90;;;;;;5048308;28;20524;-70
2023/12/29 02:02:33;;;;;;;13.45;2.25;;;11.20;99.90;;;;;;5049146;28;20013;-71
2023/12/29 02:05:00;;;;;;;11.95;2.10;;;11.20;99.90;;;;;;5048348;28;20601;-70
2023/12/29 02:07:30;;;;;;;13.63;2.40;;;11.20;99.90;;;;;;5048740;28;20029;-70
2023/12/29 02:09:56;;;;;;;6.88;1.83;;;11.20;99.90;;;;;;5045757;28;20028;-70
2023/12/29 02:12:22;;;;;;;8.20;2.05;;;11.20;99.90;;;;;;5048663;28;20075;-71
2023/12/29 02:14:48;;;;;;;9.45;1.95;;;11.20;99.90;;;;;;5048139;28;20059;-70
2023/12/29 02:17:30;;;;;;;11.07;2.35;;;11.20;99.90;;;;;;5046740;28;20836;-70
2023/12/29 02:19:56;;;;;;;13.93;2.63;;;11.10;99.90;;;;;;5048235;28;20028;-70
2023/12/29 02:22:22;;;;;;;8.65;1.90;;;11.20;99.90;;;;;;5047236;28;20017;-70
2023/12/29 02:24:49;;;;;;;9.45;2.17;;;11.10;99.90;;;;;;5046954;28;20033;-71
2023/12/29 02:27:26;;;;;;;10.20;2.00;;;11.10;99.90;;;;;;5046726;28;20029;-70
2023/12/29 02:30:05;;;;;;;12.35;2.63;;;11.10;99.90;;;;;;5048128;28;20502;-69
2023/12/29 02:32:35;;;;;;;6.55;1.50;;;11.10;99.90;;;;;;5048518;28;20116;-70
2023/12/29 02:35:02;;;;;;;11.43;2.10;;;11.00;99.90;;;;;;5047645;28;20021;-70
2023/12/29 02:37:29;;;;;;;10.50;2.38;;;11.00;99.90;;;;;;5048205;28;20392;-70
2023/12/29 02:39:57;;;;;;;11.40;2.40;;;11.00;99.90;;;;;;5047525;28;20021;-70
2023/12/29 02:42:22;;;;;;;10.25;2.17;;;10.90;99.90;;;;;;5047812;28;20049;-70
2023/12/29 02:44:48;;;;;;;11.60;2.40;;;10.90;99.90;;;;;;5048085;28;20516;-70
2023/12/29 02:47:14;;;;;;;10.60;1.85;;;10.80;99.90;;;;;;5047619;28;20021;-70
2023/12/29 02:49:39;;;;;;;10.02;2.22;;;10.90;99.90;;;;;;5047992;28;20048;-70
2023/12/29 02:52:05;;;;;;;11.88;2.40;;;10.80;99.90;;;;;;5047463;28;20037;-71
2023/12/29 02:54:31;;;;;;;12.57;2.58;;;10.80;99.90;;;;;;5047315;28;20493;-71
2023/12/29 02:56:56;;;;;;;10.07;2.40;;;10.80;99.90;;;;;;5029702;28;20025;-71
2023/12/29 02:59:22;;;;;;;11.07;1.98;;;10.80;99.90;;;;;;5047592;28;20403;-70
2023/12/29 03:01:47;;;;;;;12.98;3.13;;;10.90;99.90;;;;;;5047143;28;20052;-70
2023/12/29 03:04:13;;;;;;;9.40;2.83;;;10.90;99.90;;;;;;5047444;28;20032;-70
2023/12/29 03:06:41;;;;;;;15.60;2.47;;;10.90;99.90;;;;;;5047478;28;20040;-71
2023/12/29 03:09:06;;;;;;;12.27;2.03;;;10.90;99.90;;;;;;5047516;28;20139;-71
2023/12/29 03:11:32;;;;;;;13.27;2.35;;;10.80;99.90;;;;;;5047034;28;20386;-71
2023/12/29 03:13:58;;;;;;;10.32;2.00;;;10.90;99.90;;;;;;5047290;28;20029;-71
2023/12/29 03:16:23;;;;;;;12.05;2.58;;;10.90;99.90;;;;;;5029121;28;20036;-70
2023/12/29 03:18:49;;;;;;;10.57;2.33;;;10.90;99.90;;;;;;5034675;28;20029;-70
2023/12/29 03:21:15;;;;;;;12.63;2.30;;;10.90;99.90;;;;;;5046797;28;20676;-70
2023/12/29 03:23:40;;;;;;;11.68;2.13;;;10.90;99.90;;;;;;5047153;28;20486;-70
2023/12/29 03:26:06;;;;;;;12.30;3.08;;;10.90;99.90;;;;;;5028609;28;20029;-70
2023/12/29 03:28:32;;;;;;;11.85;2.25;;;10.90;99.90;;;;;;5047136;28;20479;-70
2023/12/29 03:30:57;;;;;;;10.70;1.80;;;10.90;99.90;;;;;;5028644;28;20630;-71
2023/12/29 03:33:23;;;;;;;12.13;2.90;;;10.90;99.90;;;;;;5047209;28;20039;-71
2023/12/29 03:35:48;;;;;;;11.93;2.22;;;11.00;99.90;;;;;;5046424;28;20036;-70
2023/12/29 03:38:14;;;;;;;8.73;1.92;;;11.00;99.90;;;;;;5046572;28;20028;-70
2023/12/29 03:40:40;;;;;;;14.82;2.38;;;11.00;99.90;;;;;;5046205;28;20403;-71
2023/12/29 03:43:06;;;;;;;13.48;2.42;;;11.00;99.90;;;;;;5046794;28;20025;-71
2023/12/29 03:45:31;;;;;;;14.73;2.55;;;11.00;99.90;;;;;;5046411;28;20029;-71
2023/12/29 03:47:57;;;;;;;13.15;2.45;;;11.10;99.90;;;;;;5046589;28;20028;-71
2023/12/29 03:50:23;;;;;;;12.82;2.17;;;11.10;99.90;;;;;;5044884;28;20036;-71
2023/12/29 03:52:48;;;;;;;14.57;2.92;;;11.10;99.90;;;;;;5046807;28;20542;-70
2023/12/29 03:55:15;;;;;;;11.80;2.20;;;11.20;99.90;;;;;;5045996;28;20557;-70
2023/12/29 03:57:42;;;;;;;11.20;2.38;;;11.20;99.90;;;;;;5046719;28;20025;-70
2023/12/29 04:00:12;;;;;;;13.70;2.85;;;11.20;99.90;;;;;;5046495;28;20025;-70
2023/12/29 04:02:38;;;;;;;12.60;3.05;;;11.30;99.90;;;;;;5046653;28;20029;-69
2023/12/29 04:05:05;;;;;;;18.67;2.80;;;11.30;99.90;;;;;;5046361;28;20493;-71
2023/12/29 04:07:31;;;;;;;12.70;2.55;;;11.30;99.90;;;;;;5046243;28;20028;-70
2023/12/29 04:09:56;;;;;;;19.25;2.92;;;11.40;99.90;;;;;;5045968;28;20017;-70
2023/12/29 04:12:22;;;;;;;13.40;3.00;;;11.40;99.90;;;;;;5046827;28;20390;-71
2023/12/29 04:14:47;;;;;;;16.20;2.72;;;11.40;99.90;;;;;;5045936;28;20489;-70
2023/12/29 04:17:13;;;;;;;15.68;2.60;;;11.40;99.90;;;;;;5046477;28;20759;-71
2023/12/29 04:19:42;;;;;;;11.70;2.28;;;11.50;99.90;;;;;;5046620;28;20112;-70
2023/12/29 04:22:08;;;;;;;15.82;2.45;;;11.50;99.90;;;;;;5027867;28;20029;-70
2023/12/29 04:24:34;;;;;;;15.10;2.55;;;11.40;99.90;;;;;;5028345;28;20032;-70
2023/12/29 04:26:59;;;;;;;13.43;3.55;;;11.40;99.90;;;;;;5032200;28;20455;-71
2023/12/29 04:29:25;;;;;;;14.93;3.03;;;11.40;99.90;;;;;;5046343;28;20106;-70
2023/12/29 04:31:51;;;;;;;14.77;3.15;;;11.40;99.90;;;;;;5045996;28;20155;-70
2023/12/29 04:34:17;;;;;;;16.05;2.80;;;11.40;99.90;;;;;;5048488;28;20091;-71
2023/12/29 04:36:42;;;;;;;20.20;3.03;;;11.40;99.90;;;;;;5049372;28;20151;-70
2023/12/29 04:39:11;;;;;;;14.95;3.05;;;11.40;99.90;;;;;;5050054;28;20390;-71
2023/12/29 04:41:36;;;;;;;16.83;3.55;;;11.40;99.90;;;;;;5049717;28;20072;-70
2023/12/29 04:44:02;;;;;;;12.10;2.70;;;11.40;99.90;;;;;;5050227;28;20489;-70
2023/12/29 04:46:28;;;;;;;17.50;2.60;;;11.40;99.90;;;;;;5050114;28;20509;-70
2023/12/29 04:48:53;;;;;;;15.30;2.80;;;11.40;99.90;;;;;;5050107;28;20028;-70
2023/12/29 04:51:20;;;;;;;13.55;2.92;;;11.40;99.90;;;;;;5049738;28;20043;-70
2023/12/29 04:53:46;;;;;;;16.90;2.85;;;11.40;99.90;;;;;;5050357;28;20038;-70
2023/12/29 04:56:11;;;;;;;16.25;3.03;;;11.40;99.90;;;;;;5049252;28;20589;-71
2023/12/29 04:58:37;;;;;;;14.90;3.08;;;11.40;99.90;;;;;;5048908;28;20306;-70
2023/12/29 05:01:03;;;;;;;17.58;3.72;;;11.40;99.90;;;;;;5049307;28;20029;-70
2023/12/29 05:03:29;;;;;;;16.27;2.70;;;11.40;99.90;;;;;;5049696;28;20029;-70
2023/12/29 05:05:54;;;;;;;18.17;2.97;;;11.50;99.90;;;;;;5049365;28;20025;-70
2023/12/29 05:08:20;;;;;;;13.80;2.83;;;11.50;99.90;;;;;;5049720;28;20041;-70
2023/12/29 05:10:46;;;;;;;18.88;3.30;;;11.40;99.90;;;;;;5049466;28;20029;-71
2023/12/29 05:13:11;;;;;;;9.57;2.70;;;11.40;99.90;;;;;;5049275;28;20251;-70
2023/12/29 05:15:37;;;;;;;13.25;2.75;;;11.50;99.90;;;;;;5049534;28;20029;-70
2023/12/29 05:18:03;;;;;;;17.55;3.65;;;11.40;99.90;;;;;;5049634;28;20544;-71
2023/12/29 05:20:28;;;;;;;14.25;2.88;;;11.40;99.90;;;;;;5049352;28;20032;-71
2023/12/29 05:22:54;;;;;;;18.55;2.97;;;11.40;99.90;;;;;;5048008;28;20017;-70
2023/12/29 05:25:22;;;;;;;16.63;3.35;;;11.40;99.90;;;;;;5049279;28;20067;-72
2023/12/29 05:27:47;;;;;;;19.90;3.10;;;11.40;99.90;;;;;;5040645;28;20028;-69
2023/12/29 05:30:13;;;;;;;22.10;4.40;;;11.40;99.90;;;;;;5049009;28;20498;-71
2023/12/29 05:32:39;;;;;;;22.20;3.85;;;11.40;99.90;;;;;;5049348;28;20025;-71
2023/12/29 05:35:05;;;;;;;18.10;3.60;;;11.40;99.90;;;;;;5049022;28;20036;-71
2023/12/29 05:37:31;;;;;;;16.48;2.95;;;11.40;99.90;;;;;;5048599;28;20060;-69
2023/12/29 05:39:56;;;;;;;19.23;3.53;;;11.40;99.90;;;;;;5049047;28;20036;-71
2023/12/29 05:42:22;;;;;;;13.93;3.15;;;11.30;99.90;;;;;;5048781;28;20152;-70
2023/12/29 05:44:48;;;;;;;18.00;3.17;;;11.30;99.90;;;;;;5049522;28;20037;-71
2023/12/29 05:47:13;;;;;;;19.77;3.90;;;11.30;99.90;;;;;;5048557;28;20017;-70
2023/12/29 05:49:39;;;;;;;14.77;2.85;;;11.30;99.90;;;;;;5048983;28;20029;-71
2023/12/29 05:52:06;;;;;;;12.05;2.50;;;11.30;99.90;;;;;;5048580;28;20021;-71
2023/12/29 05:54:31;;;;;;;18.17;3.25;;;11.30;99.90;;;;;;5049159;28;20037;-70
2023/12/29 05:56:58;;;;;;;21.92;4.05;;;11.20;99.90;;;;;;5048423;28;20386;-70
2023/12/29 05:59:23;;;;;;;20.58;2.90;;;11.20;99.90;;;;;;5048801;28;20087;-70
2023/12/29 06:01:49;;;;;;;20.05;3.45;;;11.20;99.90;;;;;;5048555;28;20017;-71
2023/12/29 06:04:15;;;;;;;13.90;2.38;;;11.20;99.90;;;;;;5047234;28;20032;-69
2023/12/29 06:06:43;;;;;;;21.85;3.63;;;11.20;99.90;;;;;;5048252;28;20033;-71
2023/12/29 06:09:10;;;;;;;15.50;3.20;;;11.20;99.90;;;;;;5048685;28;20112;-70
2023/12/29 06:11:36;;;;;;;14.40;2.60;;;11.20;99.90;;;;;;5048456;28;20104;-70
2023/12/29 06:14:02;;;;;;;12.73;3.15;;;11.10;99.90;;;;;;5048488;28;20144;-71
2023/12/29 06:16:29;;;;;;;19.92;3.38;;;11.10;99.90;;;;;;5048216;28;20024;-71
2023/12/29 06:18:55;;;;;;;15.82;2.97;;;11.10;99.90;;;;;;5048517;28;20479;-70
2023/12/29 06:21:21;;;;;;;21.88;3.17;;;11.10;99.90;;;;;;5048179;28;20025;-72
2023/12/29 06:23:46;;;;;;;14.38;2.95;;;11.10;99.90;;;;;;5048710;28;20021;-71
2023/12/29 06:26:20;;;;;;;18.55;3.13;;;11.10;99.90;;;;;;5048358;28;20029;-71
2023/12/29 06:28:46;;;;;;;18.67;3.25;;;11.10;99.90;;;;;;5035290;28;20029;-71
2023/12/29 06:31:12;;;;;;;22.42;3.60;;;11.00;99.90;;;;;;5048283;28;20036;-71
2023/12/29 06:33:42;;;;;;;15.05;3.53;;;11.00;99.90;;;;;;5048325;28;20028;-71
2023/12/29 06:36:08;;;;;;;15.95;2.88;;;11.00;99.90;;;;;;5029379;28;20078;-71
2023/12/29 06:38:34;;;;;;;16.35;2.80;;;11.00;99.90;;;;;;5048345;28;20093;-71
2023/12/29 06:41:02;;;;;;;16.83;2.60;;;11.00;99.90;;;;;;5047761;28;20068;-71
2023/12/29 06:43:28;;;;;;;19.92;2.92;;;11.00;99.90;;;;;;5048276;28;20048;-71
2023/12/29 06:45:54;;;;;;;15.65;2.88;;;11.00;99.90;;;;;;5047612;28;20769;-71
2023/12/29 06:48:20;;;;;;;17.77;2.72;;;11.00;99.90;;;;;;5047989;28;20493;-71
2023/12/29 06:50:46;;;;;;;15.30;3.10;;;11.00;99.90;;;;;;5047579;28;20071;-70
2023/12/29 06:53:11;;;;;;;16.98;2.88;;;11.00;99.90;;;;;;5048007;28;20437;-71
2023/12/29 06:55:37;;;;;;;12.27;2.42;;;11.00;99.90;;;;;;5047098;28;20025;-71
2023/12/29 06:58:07;;;;;;;12.77;2.13;;;11.00;99.90;;;;;;5047542;28;20044;-70
2023/12/29 07:00:33;;;;;;;9.90;2.10;;;11.00;99.90;;;;;;5037929;28;20017;-69
2023/12/29 07:03:01;;;;;;;11.77;2.55;;;11.00;99.90;;;;;;5044491;28;20474;-70
2023/12/29 07:05:27;;;;;;;11.27;2.40;;;11.00;99.90;;;;;;5047515;28;20032;-70
2023/12/29 07:07:52;;;;;;;11.90;2.22;;;10.90;99.90;;;;;;5047439;28;20077;-70
2023/12/29 07:10:18;;;;;;;19.55;2.55;;;10.80;99.90;;;;;;5026757;28;20509;-70
2023/12/29 07:12:44;;;;;;;8.98;2.13;;;10.70;99.90;;;;;;5047105;28;20029;-71
2023/12/29 07:15:10;;;;;;;10.43;1.77;;;10.60;99.90;;;;;;5047264;28;20021;-70
2023/12/29 07:17:35;;;;;;;16.27;2.72;;;10.50;99.90;;;;;;5047046;28;20025;-69
2023/12/29 07:20:01;;;;;;;13.45;2.60;;;10.50;99.90;;;;;;5045857;28;20132;-70
2023/12/29 07:22:27;;;;;;;13.63;2.33;;;10.50;99.90;;;;;;5047060;28;20071;-70
2023/12/29 07:24:53;;;;;;;11.25;2.25;;;10.40;99.90;;;;;;5047179;28;20067;-70
2023/12/29 07:27:19;;;;;;;14.95;3.00;;;10.40;99.90;;;;;;5046879;28;20021;-70
2023/12/29 07:29:44;;;;;;;13.75;3.03;;;10.30;99.90;;;;;;5046629;28;20470;-70
2023/12/29 07:32:10;;;;;;;14.13;2.58;;;10.30;99.90;;;;;;5046985;28;20029;-70
2023/12/29 07:34:36;;;;;;;12.68;2.67;;;10.30;99.90;;;;;;5047294;28;20100;-70
2023/12/29 07:37:02;;;;;;;13.57;3.00;;;10.30;99.90;;;;;;5046539;28;20044;-70
2023/12/29 07:39:28;;;;;;;7.93;2.30;;;10.20;99.90;;;;;;5037282;28;20043;-70
2023/12/29 07:41:53;;;;;;;12.55;2.65;;;10.20;99.90;;;;;;5046267;28;20040;-70
2023/12/29 07:44:19;;;;;;;11.93;2.50;;;10.20;99.90;;;;;;5046734;28;20009;-70
2023/12/29 07:46:45;;;;;;;13.43;2.75;;;10.20;99.90;;;;;;5046611;28;20094;-70
2023/12/29 07:49:11;;;;;;;13.95;2.58;;;10.20;99.90;;;;;;5046182;28;21390;-70
2023/12/29 07:51:41;;;;;;;11.18;2.42;;;10.20;99.90;;;;;;5045473;28;20029;-70
2023/12/29 07:54:07;;;;;;;8.95;2.45;;;10.20;99.90;;;;;;5045368;28;20110;-70
2023/12/29 07:56:33;;;;;;;17.30;2.67;;;10.20;99.90;;;;;;5046313;28;20032;-70
2023/12/29 07:58:59;;;;;;;12.52;2.28;;;10.20;99.90;;;;;;5046490;28;20035;-70
2023/12/29 08:01:25;;;;;;;13.30;2.50;;;10.30;99.90;;;;;;5028228;28;20013;-70
2023/12/29 08:03:51;;;;;;;10.55;2.10;;;10.30;99.90;;;;;;5046614;28;20044;-69
2023/12/29 08:06:17;;;;;;;8.88;1.88;;;10.30;99.90;;;;;;5042452;28;20072;-70
2023/12/29 08:08:42;;;;;;;11.70;2.20;;;10.30;99.90;;;;;;5027889;28;20490;-70
2023/12/29 08:11:16;;;;;;;17.75;2.30;;;10.40;99.90;;;;;;5041560;28;20107;-69
2023/12/29 08:13:43;;;;;;;16.02;2.42;;;10.40;99.90;;;;;;5046340;28;20033;-69
2023/12/29 08:16:09;;;;;;;14.07;2.42;;;10.30;99.90;;;;;;5045935;28;20509;-69
2023/12/29 08:18:35;;;;;;;8.40;2.65;;;10.40;99.90;;;;;;5046298;28;20048;-69
2023/12/29 08:21:01;;;;;;;8.15;1.98;;;10.40;99.90;;;;;;5045908;28;20096;-69
2023/12/29 08:23:27;;;;;;;12.82;2.45;;;10.40;99.90;;;;;;5045962;28;20025;-70
2023/12/29 08:25:53;;;;;;;11.05;1.95;;;10.40;99.90;;;;;;5044746;28;20063;-70
2023/12/29 08:28:18;;;;;;;10.43;2.00;;;10.40;99.90;;;;;;5046104;28;20475;-70
2023/12/29 08:30:45;;;;;;;9.55;1.88;;;10.50;99.90;;;;;;5046138;28;20040;-70
2023/12/29 08:33:13;;;;;;;10.00;2.22;;;10.40;99.90;;;;;;5045925;28;20029;-70
2023/12/29 08:35:40;;;;;;;9.15;2.17;;;10.50;99.90;;;;;;5045957;28;20029;-70
2023/12/29 08:38:06;;;;;;;7.85;2.03;;;10.50;99.90;;;;;;5045723;28;20036;-70
2023/12/29 08:40:32;;;;;;;10.60;1.90;;;10.50;99.90;;;;;;5042477;28;20029;-70
2023/12/29 08:42:58;;;;;;;9.60;2.00;;;10.50;99.90;;;;;;5043183;28;20121;-70
2023/12/29 08:45:23;;;;;;;11.43;2.17;;;10.60;99.90;;;;;;5032296;28;20029;-69
2023/12/29 08:47:49;;;;;;;5.63;1.90;;;10.60;99.90;;;;;;5037807;28;20025;-70
2023/12/29 08:50:15;;;;;;;9.32;2.08;;;10.60;99.90;;;;;;5043958;28;20032;-71
2023/12/29 08:52:41;;;;;;;7.65;1.58;;;10.60;99.90;;;;;;5036022;28;20033;-71
2023/12/29 08:55:08;;;;;;;7.93;1.80;;;10.70;99.90;;;;;;5040135;28;20091;-71
2023/12/29 08:57:34;;;;;;;7.45;1.95;;;10.70;99.90;;;;;;5042536;28;20024;-71
2023/12/29 08:59:59;;;;;;;8.45;1.85;;;10.70;99.90;;;;;;5045188;28;20391;-71
2023/12/29 09:02:25;;;;;;;6.45;1.63;;;10.70;99.90;;;;;;5027219;28;20029;-70
2023/12/29 09:04:51;;;;;;;6.95;1.65;;;10.80;99.90;;;;;;5027676;28;20636;-72
2023/12/29 09:07:16;;;;;;;8.07;1.73;;;10.80;99.90;;;;;;5034436;28;20025;-71
2023/12/29 09:09:42;;;;;;;5.80;1.83;;;10.80;99.90;;;;;;5044036;28;20025;-70
2023/12/29 09:12:08;;;;;;;6.13;1.83;;;10.80;99.90;;;;;;5045458;28;20643;-70
2023/12/29 09:14:34;;;;;;;8.75;1.80;;;10.80;99.90;;;;;;5045764;28;20028;-71
2023/12/29 09:17:00;;;;;;;6.80;1.70;;;10.80;99.90;;;;;;5044012;28;20479;-71
2023/12/29 09:19:26;;;;;;;10.10;2.08;;;10.80;99.90;;;;;;5046454;28;20033;-71
2023/12/29 09:21:52;;;;;;;6.10;1.65;;;10.90;99.90;;;;;;5049096;28;20019;-71
2023/12/29 09:24:17;;;;;;;7.38;1.58;;;10.90;99.90;;;;;;5049734;28;20547;-71
2023/12/29 09:26:44;;;;;;;7.85;1.63;;;10.90;99.90;;;;;;5049419;28;20551;-71
2023/12/29 09:29:09;;;;;;;7.43;2.42;;;10.90;99.90;;;;;;5029688;28;20033;-71
2023/12/29 09:31:36;;;;;;;4.93;1.42;;;10.90;99.90;;;;;;5048096;28;20044;-71
2023/12/29 09:34:02;;;;;;;5.15;1.23;;;11.00;99.90;;;;;;5041247;28;20505;-70
2023/12/29 09:36:27;;;;;;;9.32;1.80;;;11.00;99.90;;;;;;5047334;28;20032;-71
2023/12/29 09:38:53;;;;;;;7.63;1.77;;;11.00;99.90;;;;;;5037812;28;20508;-71
2023/12/29 09:41:21;;;;;;;4.90;1.15;;;11.00;99.90;;;;;;5045033;28;20044;-70
2023/12/29 09:43:49;;;;;;;6.22;1.50;;;11.00;99.90;;;;;;5049027;28;20017;-71
2023/12/29 09:46:18;;;;;;;6.05;1.35;;;11.00;99.90;;;;;;5048267;28;20147;-70
2023/12/29 09:48:46;;;;;;;5.40;1.30;;;11.00;99.90;;;;;;5048675;28;20562;-71
2023/12/29 09:53:48;;;;;;;10.35;1.70;;;11.00;99.90;;;;;;5446622;22;20138;-79
2023/12/29 09:56:14;;;;;;;8.18;1.85;;;11.10;99.90;;;;;;5047493;28;20098;-82
2023/12/29 09:58:41;;;;;;;4.45;1.40;;;11.10;99.90;;;;;;5066535;28;20532;-81
2023/12/29 10:01:07;;;;;;;5.97;1.73;;;11.10;99.90;;;;;;5053564;28;20419;-79
2023/12/29 10:03:33;;;;;;;5.45;1.25;;;11.20;99.90;;;;;;5053199;28;20028;-80
2023/12/29 10:06:02;;;;;;;8.38;1.70;;;11.20;99.90;;;;;;5068961;28;20021;-80
2023/12/29 10:08:32;;;;;;;6.88;1.60;;;11.20;99.90;;;;;;5071806;28;20060;-80
2023/12/29 10:11:00;;;;;;;8.35;1.60;;;11.20;99.90;;;;;;5044467;28;20055;-81
2023/12/29 10:13:27;;;;;;;7.28;1.45;;;11.20;99.90;;;;;;5059465;28;20052;-80
2023/12/29 10:16:02;;;;;;;5.15;1.42;;;11.30;99.90;;;;;;5052457;28;20493;-80
2023/12/29 10:18:35;;;;;;;7.60;1.35;;;11.30;99.90;;;;;;5058527;28;20565;-80
2023/12/29 10:21:36;;;;;;;4.78;1.25;;;11.30;99.90;;;;;;5058610;28;20082;-81
2023/12/29 10:24:08;;;;;;;4.03;1.13;;;11.30;99.90;;;;;;5059512;28;20521;-81
2023/12/29 10:26:35;;;;;;;3.17;1.15;;;11.30;99.90;;;;;;5052112;28;20040;-81
2023/12/29 10:29:01;;;;;;;2.75;1.40;;;11.30;99.90;;;;;;5070173;28;20485;-81
2023/12/29 10:31:26;;;;;;;2.78;1.30;;;11.30;99.90;;;;;;5042570;28;20151;-82
2023/12/29 10:33:52;;;;;;;4.45;1.35;;;11.30;99.90;;;;;;5053761;28;20511;-84
2023/12/29 10:36:18;;;;;;;2.90;1.20;;;11.30;99.90;;;;;;5054608;28;20031;-81
2023/12/29 10:38:44;;;;;;;4.72;1.50;;;11.30;99.90;;;;;;5071562;28;20092;-83
2023/12/29 10:41:21;;;;;;;2.08;0.98;;;11.30;99.90;;;;;;5055924;28;20021;-87
2023/12/29 10:43:47;;;;;;;3.80;1.05;;;11.30;99.90;;;;;;5072317;28;20552;-89
2023/12/29 10:46:13;;;;;;;3.33;1.38;;;11.30;99.90;;;;;;5048845;28;20470;-88
2023/12/29 10:48:39;;;;;;;2.63;0.95;;;11.40;99.90;;;;;;5061427;28;20054;-88
2023/12/29 10:51:05;;;;;;;4.18;1.30;;;11.40;99.90;;;;;;5045646;28;20021;-88
2023/12/29 10:53:32;;;;;;;4.78;1.23;;;11.40;99.90;;;;;;5040862;28;20037;-87
2023/12/29 10:56:00;;;;;;;3.42;1.10;;;11.40;99.90;;;;;;5044969;28;20032;-88
2023/12/29 10:58:29;;;;;;;2.83;1.02;;;11.40;99.90;;;;;;5051507;28;20048;-88
2023/12/29 11:00:59;;;;;;;3.58;1.10;;;11.40;99.90;;;;;;5054852;28;20021;-88
2023/12/29 11:03:25;;;;;;;7.63;1.50;;;11.40;99.90;;;;;;5052950;28;20048;-89
2023/12/29 11:06:01;;;;;;;3.72;1.00;;;11.40;99.90;;;;;;5051436;28;20040;-89
2023/12/29 11:08:27;;;;;;;5.32;1.45;;;11.50;99.90;;;;;;5043113;28;20397;-87
2023/12/29 11:10:54;;;;;;;4.88;1.10;;;11.50;99.90;;;;;;5063206;28;20107;-89
2023/12/29 11:13:21;;;;;;;4.28;1.15;;;11.60;99.90;;;;;;5070640;28;20040;-88
2023/12/29 11:15:47;;;;;;;7.18;1.60;;;11.70;99.90;;;;;;5054614;28;20013;-88
2023/12/29 11:18:15;;;;;;;8.25;1.63;;;11.70;99.90;;;;;;5042442;28;20112;-88
2023/12/29 11:20:42;;;;;;;3.58;1.48;;;11.80;99.90;;;;;;5055160;28;20046;-88
2023/12/29 11:23:11;;;;;;;3.28;1.08;;;11.80;99.90;;;;;;5057857;28;20016;-89
2023/12/29 11:25:37;;;;;;;4.82;1.35;;;12.00;99.90;;;;;;5052131;28;20025;-88
2023/12/29 11:28:13;;;;;;;3.47;1.10;;;12.00;99.90;;;;;;5053993;28;20029;-94
2023/12/29 11:30:39;;;;;;;2.72;1.20;;;12.10;99.90;;;;;;5063024;28;20027;-93
2023/12/29 11:33:08;;;;;;;3.10;1.10;;;12.10;99.90;;;;;;5077354;28;20474;-92
2023/12/29 11:35:51;;;;;;;6.85;1.55;;;12.20;99.90;;;;;;5077470;28;20020;-94
2023/12/29 11:38:54;;;;;;;4.85;1.63;;;12.20;99.90;;;;;;5056421;28;20031;-92
2023/12/29 11:41:51;;;;;;;7.93;1.60;;;12.20;99.90;;;;;;5076916;28;20040;-91
2023/12/29 11:44:27;;;;;;;3.00;1.45;;;12.20;99.90;;;;;;5077474;28;20016;-90
2023/12/29 11:46:53;;;;;;;5.38;1.15;;;12.10;99.90;;;;;;5054842;28;20017;-90
2023/12/29 11:49:19;;;;;;;5.95;1.40;;;12.10;99.90;;;;;;5076381;28;20081;-90
2023/12/29 11:51:51;;;;;;;5.55;1.88;;;12.10;99.90;;;;;;5077851;28;20028;-90
2023/12/29 11:54:27;;;;;;;4.20;1.60;;;12.00;99.90;;;;;;5076910;28;20053;-90
2023/12/29 11:56:54;;;;;;;6.03;1.42;;;12.00;99.90;;;;;;5059430;28;20096;-88
2023/12/29 11:59:24;;;;;;;9.75;1.92;;;12.00;99.90;;;;;;5060310;28;20485;-91
2023/12/29 12:02:00;;;;;;;9.13;2.17;;;12.00;99.90;;;;;;5064344;28;20012;-94
2023/12/29 12:04:45;;;;;;;6.85;1.33;;;12.00;99.90;;;;;;5069114;28;20051;-96
2023/12/29 12:07:40;;;;;;;8.23;2.17;;;11.90;99.90;;;;;;5060818;28;20478;-95
2023/12/29 12:10:21;;;;;;;6.72;1.67;;;11.90;99.90;;;;;;5078460;28;20036;-93
2023/12/29 12:12:51;;;;;;;7.18;2.10;;;11.90;99.90;;;;;;5080107;28;20036;-93
2023/12/29 12:15:33;;;;;;;10.52;2.97;;;11.90;99.90;;;;;;5068578;28;20025;-95
2023/12/29 12:18:04;;;;;;;9.40;2.33;;;11.90;99.90;;;;;;5080696;28;20027;-93
2023/12/29 12:20:30;;;;;;;10.50;1.92;;;11.90;99.90;;;;;;5061567;28;20025;-94
2023/12/29 12:23:00;;;;;;;10.50;1.98;;;12.00;99.90;;;;;;5060055;28;20078;-93
2023/12/29 12:25:34;;;;;;;11.07;1.80;;;12.00;99.90;;;;;;5077987;28;20534;-94
2023/12/29 12:28:05;;;;;;;10.40;1.90;;;12.00;99.90;;;;;;5078333;28;20017;-93
2023/12/29 12:30:34;;;;;;;9.50;1.65;;;11.90;99.90;;;;;;5062161;28;20020;-94
2023/12/29 12:33:04;;;;;;;5.40;1.65;;;11.90;99.90;;;;;;5079402;28;20078;-93
2023/12/29 12:35:36;;;;;;;9.35;1.85;;;11.90;99.90;;;;;;5067487;28;20012;-96
2023/12/29 12:38:12;;;;;;;15.02;2.33;;;12.00;99.90;;;;;;5069522;23;20566;-69
2023/12/29 12:40:38;;;;;;;9.15;1.95;;;12.00;99.90;;;;;;5066236;28;20060;-70
2023/12/29 12:43:04;;;;;;;14.52;2.35;;;12.00;99.90;;;;;;5065901;28;20076;-70